Flight Track Log - Related Links

Times and Time Zones

All times are in EST time to prevent confusion due to time zone crossing. See the AAL371 flight status page for this flight to view local times or setup timezone preferences in your user account.


Time Position Orientation Groundspeed Altitude Reporting Facility
EST Latitude Longitude Course Direction KTS MPH feet Rate Location/Type
Sun 10:35:08 PM 40.7833 -73.7833 304° West 207 238 2,700  Level New York TRACON
Sun 10:36:02 PM 40.8333 -73.7500 27° Northeast 249 287 4,400 1,632 Climbing New York TRACON
Sun 10:37:00 PM 40.8345 -74.2613 312° West  Level Estimated
Sun 10:37:02 PM 40.8833 -73.8000 323° Northwest 280 322 5,800  Level New York TRACON
Sun 10:38:00 PM 40.8532 -74.3910 270° West  Level Estimated
Sun 10:38:02 PM 40.9500 -73.8833 317° Northwest 292 336 8,800  Level New York TRACON
Sun 10:39:00 PM 40.8719 -74.5208 294° West  Level Estimated
Sun 10:39:08 PM 40.9667 -73.9833 282° West 279 321 11,200  Level New York TRACON
Sun 10:40:00 PM 40.8904 -74.6506 304° West  Level Estimated
Sun 10:40:08 PM 41.0000 -74.0833 294° West 317 365 13,200  Level New York TRACON
Sun 10:41:14 PM 41.0167 -74.2167 279° West 341 392 15,000 1,380 Climbing New York TRACON
Sun 10:43:15 PM 41.0850 -74.4653 290° West 361 415 17,500 1,293 Climbing New York Center
Sun 10:44:15 PM 41.1314 -74.5836 298° West 361 415 18,900 1,900 Climbing New York Center
Sun 10:45:15 PM 41.1833 -74.7106 299° West 374 430 21,300 2,150 Climbing New York Center
Sun 10:46:15 PM 41.2311 -74.8347 297° West 379 436 23,200 1,750 Climbing New York Center
Sun 10:47:15 PM 41.2753 -74.9478 297° West 379 436 24,800 1,500 Climbing New York Center
Sun 10:48:15 PM 41.3228 -75.0722 297° West 379 436 26,200 1,450 Climbing New York Center
Sun 10:49:15 PM 41.3722 -75.2025 297° West 384 442 27,700 1,450 Climbing New York Center
Sun 10:50:15 PM 41.4192 -75.3331 296° West 384 442 29,100 1,450 Climbing New York Center
Sun 10:51:15 PM 41.4664 -75.4581 297° West 389 448 30,600 1,250 Climbing New York Center
Sun 10:52:15 PM 41.5053 -75.5825 293° West 383 441 31,600 700 Climbing New York Center
Sun 10:53:15 PM 41.5414 -75.7128 290° West 378 435 32,000 200 Climbing New York Center
Sun 10:54:15 PM 41.5797 -75.8458 291° West 378 435 32,000  Level New York Center
Sun 10:55:15 PM 41.6178 -75.9764 291° West 378 435 32,000  Level New York Center
Sun 10:57:34 PM 41.7056 -76.2908 291° West 376 433 32,000  Level Cleveland Center
Sun 10:58:35 PM 41.7414 -76.4197 290° West 371 427 32,000  Level Cleveland Center
Sun 10:59:36 PM 41.7772 -76.5525 290° West 378 435 32,000  Level Cleveland Center
Sun 11:00:37 PM 41.8147 -76.6839 291° West 378 435 32,000  Level Cleveland Center
Sun 11:01:38 PM 41.8506 -76.8144 290° West 376 433 32,000  Level Cleveland Center
Sun 11:02:39 PM 41.8869 -76.9469 290° West 378 435 32,000  Level Cleveland Center
Sun 11:03:40 PM 41.9222 -77.0797 290° West 378 435 32,000  Level Cleveland Center
Sun 11:04:41 PM 41.9583 -77.2150 290° West 382 440 32,000  Level Cleveland Center
Sun 11:05:42 PM 41.9950 -77.3503 290° West 386 444 32,000  Level Cleveland Center
Sun 11:06:43 PM 42.0317 -77.4864 290° West 385 443 32,000  Level Cleveland Center
Sun 11:07:44 PM 42.0686 -77.6214 290° West 384 442 32,000  Level Cleveland Center
Sun 11:08:45 PM 42.1050 -77.7558 290° West 382 440 32,000  Level Cleveland Center
Sun 11:09:46 PM 42.1411 -77.8944 289° West 388 447 32,000  Level Cleveland Center
Sun 11:10:47 PM 42.1794 -78.0336 290° West 394 453 32,000  Level Cleveland Center
Sun 11:11:48 PM 42.2164 -78.1719 290° West 391 450 32,000  Level Cleveland Center
Sun 11:12:49 PM 42.2592 -78.3389 289° West 392 451 32,000  Level Cleveland Center
Sun 11:13:50 PM 42.2936 -78.4800 288° West 394 453 32,000  Level Cleveland Center
Sun 11:14:50 PM 42.3275 -78.6178 288° West 388 447 32,000  Level Cleveland Center
Sun 11:15:51 PM 42.3614 -78.7561 288° West 387 445 32,000  Level Cleveland Center
Sun 11:16:52 PM 42.3944 -78.8903 288° West 378 435 32,000  Level Cleveland Center
Sun 11:17:53 PM 42.4061 -79.0156 277° West 355 409 32,000  Level Cleveland Center
Sun 11:18:54 PM 42.4150 -79.1456 275° West 354 407 32,000  Level Cleveland Center
Sun 11:19:55 PM 42.4239 -79.2806 275° West 363 418 32,000  Level Cleveland Center
Sun 11:20:56 PM 42.4317 -79.4125 275° West 356 410 32,000  Level Cleveland Center
Sun 11:21:57 PM 42.4428 -79.5756 275° West 365 420 32,000  Level Cleveland Center
Sun 11:22:58 PM 42.4511 -79.7125 275° West 367 422 32,000  Level Cleveland Center
Sun 11:23:58 PM 42.4600 -79.8525 275° West 378 435 32,000  Level Cleveland Center
Sun 11:24:59 PM 42.4675 -79.9914 274° West 382 440 32,000  Level Cleveland Center
Sun 11:26:00 PM 42.4747 -80.1319 274° West 373 429 32,000  Level Cleveland Center
Sun 11:27:01 PM 42.4825 -80.2717 274° West 371 427 32,000  Level Cleveland Center
Sun 11:28:02 PM 42.4897 -80.4111 274° West 369 425 32,000  Level Cleveland Center
Sun 11:29:02 PM 42.4978 -80.5536 274° West 376 433 32,000  Level Cleveland Center
Sun 11:30:03 PM 42.5053 -80.6939 274° West 374 430 32,000  Level Cleveland Center
Sun 11:31:04 PM 42.5092 -80.8358 272° West 374 430 32,000  Level Cleveland Center
Sun 11:32:05 PM 42.5136 -80.9736 273° West 366 421 32,000  Level Cleveland Center
Sun 11:33:05 PM 42.5175 -81.1131 272° West 368 423 32,000  Level Cleveland Center
Sun 11:34:06 PM 42.5219 -81.2528 273° West 369 425 32,000  Level Cleveland Center
Sun 11:35:07 PM 42.5367 -81.3931 278° West 375 432 32,000  Level Cleveland Center
Sun 11:36:08 PM 42.5528 -81.5339 279° West 376 433 32,000  Level Cleveland Center
Sun 11:37:08 PM 42.5678 -81.6772 278° West 380 437 32,000  Level Cleveland Center
Sun 11:38:09 PM 42.5861 -81.8356 279° West 379 436 32,000  Level Cleveland Center
Sun 11:39:10 PM 42.6025 -81.9842 279° West 380 437 32,000  Level Cleveland Center
Sun 11:40:11 PM 42.6167 -82.1197 278° West 382 440 32,000  Level Cleveland Center
Sun 11:41:11 PM 42.6328 -82.2636 279° West 387 445 32,000  Level Cleveland Center
Sun 11:42:12 PM 42.6472 -82.4067 278° West 385 443 32,000  Level Cleveland Center
Sun 11:43:13 PM 42.6622 -82.5511 278° West 388 447 32,000  Level Cleveland Center
Sun 11:44:14 PM 42.6775 -82.6953 278° West 388 447 32,000  Level Cleveland Center
Sun 11:45:14 PM 42.6939 -82.8528 278° West 384 442 32,000  Level Cleveland Center
Sun 11:46:15 PM 42.7061 -82.9828 277° West 388 447 32,000  Level Cleveland Center
Sun 11:47:16 PM 42.7231 -83.1258 279° West 389 448 32,000  Level Cleveland Center
Sun 11:48:16 PM 42.7392 -83.2703 279° West 390 449 32,000  Level Cleveland Center
Sun 11:49:17 PM 42.7603 -83.4436 279° West 390 449 32,000  Level Cleveland Center
Sun 11:50:18 PM 42.7764 -83.5867 279° West 388 447 32,000  Level Cleveland Center
Sun 11:51:18 PM 42.7928 -83.7294 279° West 386 444 32,000  Level Cleveland Center
Sun 11:52:19 PM 42.8078 -83.8708 278° West 382 440 32,000  Level Cleveland Center
Sun 11:53:20 PM 42.8233 -84.0119 279° West 379 436 32,000  Level Cleveland Center
Sun 11:54:20 PM 42.8406 -84.1653 279° West 382 440 32,000  Level Cleveland Center
Sun 11:55:21 PM 42.8542 -84.2942 278° West 378 435 32,000  Level Cleveland Center
Sun 11:56:06 PM 42.8644 -84.3914 278° West 380 437 32,000  Level Chicago Center
Sun 11:57:07 PM 42.8800 -84.5356 278° West 385 443 32,000  Level Chicago Center
Sun 11:58:08 PM 42.8711 -84.7083 266° West 388 447 32,000  Level Chicago Center
Sun 11:59:09 PM 42.8564 -84.8517 262° West 385 443 32,000  Level Chicago Center
Mon 12:00:10 AM 42.8419 -84.9931 262° West 380 437 32,000  Level Chicago Center
Mon 12:01:10 AM 42.8264 -85.1314 261° West 373 429 32,000  Level Chicago Center
Mon 12:02:11 AM 42.8114 -85.2711 262° West 372 428 32,000  Level Chicago Center
Mon 12:03:12 AM 42.7961 -85.4094 261° West 370 426 32,000 -246 Level Chicago Center
Mon 12:04:13 AM 42.7781 -85.5486 260° West 372 428 31,500 -1,279 Descending Chicago Center
Mon 12:05:14 AM 42.7533 -85.6858 256° West 371 427 29,400 -1,912 Descending Chicago Center
Mon 12:07:15 AM 42.7039 -85.9594 256° West 369 425 25,700 -1,912 Descending Chicago Center
Mon 12:08:16 AM 42.6806 -86.0883 256° West 355 409 23,600 -2,033 Descending Chicago Center
Mon 12:09:16 AM 42.6561 -86.2164 255° West 350 403 21,600 -1,983 Descending Chicago Center
Mon 12:10:17 AM 42.6317 -86.3436 255° West 347 399 19,600 -1,967 Descending Chicago Center
Mon 12:11:18 AM 42.6072 -86.4706 255° West 347 399 17,600 -1,820 Descending Chicago Center
Mon 12:12:19 AM 42.5853 -86.5900 256° West 329 379 15,900 -1,636 Descending Chicago Center
Mon 12:13:19 AM 42.5639 -86.7108 257° West 330 380 14,300 -1,537 Descending Chicago Center
Mon 12:14:20 AM 42.5342 -86.8264 251° West 326 375 12,800 -1,475 Descending Chicago Center
Mon 12:15:21 AM 42.5033 -86.9397 250° West 323 372 11,300 -1,289 Descending Chicago Center
Mon 12:16:21 AM 42.4722 -87.0461 248° West 309 356 10,200 -694 Descending Chicago Center
Mon 12:17:22 AM 42.4442 -87.1494 250° West 295 339 9,900 -590 Descending Chicago Center
Mon 12:18:23 AM 42.4194 -87.2386 249° West 259 298 9,000 -446 Descending Chicago Center
Mon 12:19:23 AM 42.3969 -87.3258 251° West 247 284 9,000 -645 Level Chicago Center
Mon 12:20:24 AM 42.3317 -87.3883 215° Southwest 274 315 7,700 -1,180 Descending Chicago Center
Mon 12:21:25 AM 42.2656 -87.4036 190° South 278 320 6,600 -843 Descending Chicago Center
Mon 12:22:25 AM 42.1869 -87.4228 190° South 286 329 6,000 -595 Descending Chicago Center
Mon 12:23:26 AM 42.1106 -87.4408 190° South 282 325 5,400 -843 Descending Chicago Center
Mon 12:24:26 AM 42.0342 -87.4567 189° South 280 322 4,300 -694 Descending Chicago Center
Mon 12:25:27 AM 41.9722 -87.4933 204° Southwest 232 267 4,000 -149 Descending Chicago Center
Mon 12:26:27 AM 41.9703 -87.5411 267° West 164 189 4,000  Level Chicago Center
Mon 12:27:28 AM 41.9692 -87.5939 268° West 147 169 4,000  Level Chicago Center
Mon 12:28:12 AM 41.9667 -87.6333 265° West 137 158 4,000 -115 Level Chicago TRACON
Mon 12:29:12 AM 41.9667 -87.6833 270° West 134 154 3,800 -500 Descending Chicago TRACON
Mon 12:30:12 AM 41.9667 -87.7333 270° West 134 154 3,000 -793 Descending Chicago TRACON
Mon 12:31:13 AM 41.9667 -87.7833 270° West 138 159 2,200 -709 Descending Chicago TRACON
Mon 12:32:19 AM 41.9667 -87.8333 270° West 125 144 1,500 -636 Descending Chicago TRACON

Login

Don't have an account? Register now (free) for customized features, flight alerts, and more!